Time;durP1;ratioP1;P1;durP2;ratioP2;P2;SDS_P1;SDS_P2;PMS_P1;PMS_P2;Temp;Humidity;BMP_temperature;BMP_pressure;BME280_temperature;BME280_humidity;BME280_pressure;Samples;Min_cycle;Max_cycle;Signal;HPM_P1;HPM_P2
2023/03/20 00:01:16;;;;;;;8.43;5.40;;;7.60;99.90;;;;;;4985554;28;20430;-76
2023/03/20 00:03:42;;;;;;;11.23;5.22;;;7.50;99.90;;;;;;4987131;28;20905;-74
2023/03/20 00:06:18;;;;;;;7.35;5.22;;;7.60;99.90;;;;;;4972436;28;20430;-76
2023/03/20 00:08:47;;;;;;;10.60;5.72;;;7.60;99.90;;;;;;4976054;28;20559;-77
2023/03/20 00:11:35;;;;;;;9.40;5.63;;;7.50;99.90;;;;;;4970070;28;20444;-75
2023/03/20 00:14:04;;;;;;;8.75;5.57;;;7.60;99.90;;;;;;4981834;28;20423;-75
2023/03/20 00:16:36;;;;;;;8.82;5.20;;;7.60;99.90;;;;;;4971314;28;20485;-76
2023/03/20 00:19:03;;;;;;;10.75;5.18;;;7.60;99.90;;;;;;4987631;28;20418;-75
2023/03/20 00:21:29;;;;;;;13.20;6.40;;;7.70;99.90;;;;;;4987052;28;20476;-75
2023/03/20 00:23:55;;;;;;;9.50;5.50;;;7.80;99.90;;;;;;4987270;28;20789;-76
2023/03/20 00:26:27;;;;;;;9.88;5.35;;;7.70;99.90;;;;;;4987669;28;20426;-75
2023/03/20 00:28:53;;;;;;;7.97;5.90;;;7.70;99.90;;;;;;4989831;28;20570;-74
2023/03/20 00:31:26;;;;;;;10.30;5.75;;;7.70;99.90;;;;;;4971537;28;20466;-76
2023/03/20 00:33:54;;;;;;;10.65;6.00;;;7.80;99.90;;;;;;4985044;28;20526;-75
2023/03/20 00:36:20;;;;;;;8.37;5.23;;;7.70;99.90;;;;;;4986675;28;20536;-75
2023/03/20 00:38:46;;;;;;;9.55;5.88;;;7.80;99.90;;;;;;4972660;28;20938;-75
2023/03/20 00:41:27;;;;;;;8.38;5.45;;;7.90;99.90;;;;;;4986392;28;20517;-75
2023/03/20 00:44:00;;;;;;;13.05;6.72;;;7.90;99.90;;;;;;4968092;28;20465;-75
2023/03/20 00:46:26;;;;;;;11.88;6.13;;;7.90;99.90;;;;;;4985342;28;20430;-75
2023/03/20 00:48:52;;;;;;;12.43;7.43;;;7.90;99.90;;;;;;4968800;28;20522;-75
2023/03/20 00:51:18;;;;;;;10.05;6.15;;;8.00;99.90;;;;;;4984821;28;20494;-78
2023/03/20 00:53:44;;;;;;;12.85;6.57;;;7.90;99.90;;;;;;4989173;28;20418;-76
2023/03/20 00:56:26;;;;;;;13.57;7.20;;;8.00;99.90;;;;;;4990129;28;20438;-75
2023/03/20 00:58:52;;;;;;;14.80;7.75;;;7.80;99.90;;;;;;4990617;28;20428;-75
2023/03/20 01:01:18;;;;;;;17.60;8.65;;;7.90;99.90;;;;;;4988493;28;20427;-76
2023/03/20 01:03:44;;;;;;;12.50;7.30;;;7.90;99.90;;;;;;4990018;28;20430;-77
2023/03/20 01:06:12;;;;;;;12.18;7.78;;;7.90;99.90;;;;;;4974680;28;21030;-75
2023/03/20 01:08:38;;;;;;;14.55;7.40;;;7.90;99.90;;;;;;4987438;28;20812;-75
2023/03/20 01:11:04;;;;;;;13.82;7.78;;;7.90;99.90;;;;;;4987825;28;20426;-75
2023/03/20 01:13:31;;;;;;;21.92;8.52;;;7.90;99.90;;;;;;4985883;28;20426;-75
2023/03/20 01:15:58;;;;;;;14.80;8.15;;;7.90;99.90;;;;;;4984627;28;20788;-75
2023/03/20 01:18:26;;;;;;;15.13;8.27;;;7.80;99.90;;;;;;4986153;28;20517;-75
2023/03/20 01:20:51;;;;;;;17.88;8.32;;;7.80;99.90;;;;;;4982798;28;20489;-73
2023/03/20 01:23:19;;;;;;;18.17;8.90;;;7.90;99.90;;;;;;4985932;28;20434;-75
2023/03/20 01:25:45;;;;;;;15.20;8.27;;;7.90;99.90;;;;;;4988059;28;20438;-75
2023/03/20 01:28:20;;;;;;;14.35;8.55;;;7.80;99.90;;;;;;4977347;28;20795;-74
2023/03/20 01:30:47;;;;;;;24.90;10.23;;;7.80;99.90;;;;;;4986794;28;20436;-75
2023/03/20 01:33:20;;;;;;;15.55;8.38;;;7.90;99.90;;;;;;4987867;28;20793;-75
2023/03/20 01:35:47;;;;;;;15.20;8.45;;;7.80;99.90;;;;;;4974370;28;20519;-75
2023/03/20 01:38:26;;;;;;;20.42;9.80;;;7.90;99.90;;;;;;4986562;28;20860;-75
2023/03/20 01:41:15;;;;;;;17.85;7.80;;;7.90;99.90;;;;;;4988633;28;20415;-75
2023/03/20 01:43:41;;;;;;;16.80;7.75;;;8.00;99.90;;;;;;4968170;28;20793;-75
2023/03/20 01:46:10;;;;;;;16.50;8.32;;;8.00;99.90;;;;;;4987794;28;20492;-75
2023/03/20 01:48:51;;;;;;;18.85;7.38;;;7.90;99.90;;;;;;4985320;28;20430;-76
2023/03/20 01:51:22;;;;;;;15.87;7.37;;;8.00;99.90;;;;;;4985544;28;20493;-74
2023/03/20 01:53:55;;;;;;;16.73;7.55;;;8.00;99.90;;;;;;4983697;28;20453;-77
2023/03/20 01:56:21;;;;;;;13.65;6.80;;;7.90;99.90;;;;;;4988390;28;20434;-74
2023/03/20 01:58:51;;;;;;;14.93;7.03;;;8.00;99.90;;;;;;4988540;28;20510;-75
2023/03/20 02:01:17;;;;;;;19.25;8.48;;;8.00;99.90;;;;;;4985115;28;20434;-74
2023/03/20 02:03:48;;;;;;;11.83;6.67;;;8.00;99.90;;;;;;4986825;28;20441;-76
2023/03/20 02:06:14;;;;;;;14.80;7.13;;;8.00;99.90;;;;;;4983125;28;20513;-76
2023/03/20 02:08:46;;;;;;;16.67;7.68;;;7.90;99.90;;;;;;4970266;28;20426;-75
2023/03/20 02:11:12;;;;;;;14.98;7.97;;;8.00;99.90;;;;;;4982717;28;20449;-78
2023/03/20 02:13:39;;;;;;;16.70;7.63;;;8.00;99.90;;;;;;4981736;28;20434;-77
2023/03/20 02:16:15;;;;;;;14.10;7.53;;;8.00;99.90;;;;;;4967377;28;20435;-75
2023/03/20 02:18:46;;;;;;;14.07;8.40;;;8.10;99.90;;;;;;4985842;28;20426;-75
2023/03/20 02:21:39;;;;;;;12.02;7.15;;;8.10;99.90;;;;;;4985085;28;20438;-76
2023/03/20 02:24:42;;;;;;;14.98;8.25;;;8.00;99.90;;;;;;4968580;28;20812;-75
2023/03/20 02:27:22;;;;;;;14.60;8.55;;;8.00;99.90;;;;;;4987291;28;21038;-75
2023/03/20 02:30:00;;;;;;;15.32;7.85;;;8.10;99.90;;;;;;4985382;28;20457;-76
2023/03/20 02:32:38;;;;;;;12.13;8.07;;;8.00;99.90;;;;;;4970349;28;20451;-76
2023/03/20 02:35:17;;;;;;;13.60;8.00;;;8.00;99.90;;;;;;4984177;28;20750;-75
2023/03/20 02:38:10;;;;;;;12.95;7.53;;;8.00;99.90;;;;;;4987292;28;20747;-75
2023/03/20 02:40:57;;;;;;;17.58;10.07;;;8.00;99.90;;;;;;4971983;28;20956;-76
2023/03/20 02:43:45;;;;;;;17.20;9.18;;;8.00;99.90;;;;;;4987125;28;20458;-75
2023/03/20 02:46:27;;;;;;;18.90;9.23;;;8.10;99.90;;;;;;4986411;28;20789;-74
2023/03/20 02:48:58;;;;;;;17.80;8.88;;;8.10;99.90;;;;;;4980775;28;20482;-76
2023/03/20 02:51:27;;;;;;;17.35;9.77;;;8.10;99.90;;;;;;4978830;28;20832;-75
2023/03/20 02:54:17;;;;;;;17.35;9.73;;;8.10;99.90;;;;;;4981555;28;20414;-75
2023/03/20 02:57:03;;;;;;;14.82;9.05;;;8.00;99.90;;;;;;4984840;28;20435;-75
2023/03/20 02:59:40;;;;;;;16.60;9.38;;;8.00;99.90;;;;;;4986600;28;20575;-74
2023/03/20 03:02:07;;;;;;;19.70;9.70;;;8.00;99.90;;;;;;4985741;28;20453;-76
2023/03/20 03:04:42;;;;;;;13.20;8.77;;;8.00;99.90;;;;;;4967658;28;20614;-75
2023/03/20 03:07:11;;;;;;;18.80;9.60;;;8.00;99.90;;;;;;4984610;28;20434;-78
2023/03/20 03:09:48;;;;;;;15.27;9.82;;;8.00;99.90;;;;;;4985623;28;20442;-75
2023/03/20 03:12:18;;;;;;;18.33;9.55;;;8.00;99.90;;;;;;4985989;28;20426;-75
2023/03/20 03:14:51;;;;;;;16.45;8.93;;;8.00;99.90;;;;;;4962670;28;20972;-75
2023/03/20 03:17:19;;;;;;;16.80;9.43;;;8.00;99.90;;;;;;4984910;28;20907;-75
2023/03/20 03:19:49;;;;;;;13.27;9.20;;;8.00;99.90;;;;;;4980652;28;20573;-75
2023/03/20 03:22:15;;;;;;;11.90;8.70;;;8.10;99.90;;;;;;4968169;28;20469;-76
2023/03/20 03:24:47;;;;;;;13.57;7.45;;;8.00;99.90;;;;;;4986149;28;20421;-76
2023/03/20 03:27:33;;;;;;;13.70;7.83;;;8.00;99.90;;;;;;4986916;28;20453;-77
2023/03/20 03:30:04;;;;;;;16.08;7.90;;;8.00;99.90;;;;;;4980586;28;20430;-76
2023/03/20 03:32:43;;;;;;;13.55;7.70;;;8.00;99.90;;;;;;4987050;28;20769;-76
2023/03/20 03:35:15;;;;;;;14.52;7.50;;;8.00;99.90;;;;;;4987076;28;20708;-75
2023/03/20 03:37:59;;;;;;;14.93;7.38;;;8.00;99.90;;;;;;4986354;28;20719;-77
2023/03/20 03:40:58;;;;;;;12.43;7.30;;;8.00;99.90;;;;;;4986025;28;20433;-76
2023/03/20 03:43:36;;;;;;;11.82;7.18;;;8.00;99.90;;;;;;4984676;28;20430;-76
2023/03/20 03:46:34;;;;;;;16.17;8.23;;;8.10;99.90;;;;;;4970070;28;20438;-76
2023/03/20 03:49:01;;;;;;;14.88;7.63;;;7.90;99.90;;;;;;4982723;28;20540;-75
2023/03/20 03:51:30;;;;;;;12.90;6.70;;;8.00;99.90;;;;;;4989478;28;21002;-77
2023/03/20 03:54:01;;;;;;;12.77;6.63;;;7.90;99.90;;;;;;4989751;28;20434;-75
2023/03/20 03:56:30;;;;;;;12.75;7.40;;;7.90;99.90;;;;;;4987969;28;20431;-75
2023/03/20 03:59:03;;;;;;;12.57;7.00;;;7.90;99.90;;;;;;4990901;28;20418;-76
2023/03/20 04:01:34;;;;;;;13.00;7.43;;;7.90;99.90;;;;;;4970661;28;20452;-75
2023/03/20 04:04:02;;;;;;;11.50;7.43;;;8.00;99.90;;;;;;4984318;28;20781;-78
2023/03/20 04:06:28;;;;;;;13.95;8.60;;;7.90;99.90;;;;;;4965163;28;20452;-75
2023/03/20 04:08:54;;;;;;;12.00;7.05;;;7.90;99.90;;;;;;4984448;28;20437;-77
2023/03/20 04:11:24;;;;;;;16.93;8.40;;;7.80;99.90;;;;;;4989708;28;20784;-77
2023/03/20 04:13:51;;;;;;;15.50;9.10;;;7.90;99.90;;;;;;4991452;28;20422;-77
2023/03/20 04:16:18;;;;;;;16.08;9.20;;;7.80;99.90;;;;;;4987587;28;20509;-75
2023/03/20 04:18:44;;;;;;;11.15;8.52;;;7.80;99.90;;;;;;4987017;28;20480;-74
2023/03/20 04:21:10;;;;;;;14.00;9.05;;;7.80;99.90;;;;;;4984134;28;20928;-75
2023/03/20 04:23:36;;;;;;;14.77;8.52;;;7.80;99.90;;;;;;4971524;28;20920;-76
2023/03/20 04:26:03;;;;;;;16.98;9.60;;;7.80;99.90;;;;;;4971349;28;20445;-75
2023/03/20 04:28:29;;;;;;;16.27;10.30;;;7.80;99.90;;;;;;4986165;28;20430;-75
2023/03/20 04:30:56;;;;;;;11.93;8.82;;;7.80;99.90;;;;;;4987873;28;20422;-75
2023/03/20 04:33:23;;;;;;;16.63;8.73;;;7.80;99.90;;;;;;4989548;28;20427;-77
2023/03/20 04:35:49;;;;;;;15.63;8.90;;;7.80;99.90;;;;;;4986499;28;20770;-75
2023/03/20 04:38:16;;;;;;;13.30;8.38;;;7.80;99.90;;;;;;4990121;28;20410;-75
2023/03/20 04:40:43;;;;;;;13.80;9.05;;;7.80;99.90;;;;;;4987479;28;20640;-76
2023/03/20 04:43:09;;;;;;;14.85;8.55;;;7.70;99.90;;;;;;4987871;28;20422;-76
2023/03/20 04:45:34;;;;;;;12.37;8.97;;;7.80;99.90;;;;;;4982252;28;20418;-77
2023/03/20 04:48:00;;;;;;;17.33;10.20;;;7.80;99.90;;;;;;4969213;28;20428;-74
2023/03/20 04:50:26;;;;;;;14.35;9.52;;;7.70;99.90;;;;;;4975603;28;20477;-77
2023/03/20 04:52:52;;;;;;;17.60;11.18;;;7.80;99.90;;;;;;4973103;28;20888;-76
2023/03/20 04:55:18;;;;;;;13.82;10.55;;;7.80;99.90;;;;;;4988564;28;20426;-76
2023/03/20 04:57:44;;;;;;;18.25;11.60;;;7.70;99.90;;;;;;4988402;28;20439;-75
2023/03/20 05:00:10;;;;;;;18.35;11.20;;;7.80;99.90;;;;;;4974591;28;20427;-76
2023/03/20 05:02:36;;;;;;;17.50;12.25;;;7.70;99.90;;;;;;4975508;28;20423;-76
2023/03/20 05:05:02;;;;;;;17.08;11.75;;;7.70;99.90;;;;;;4969916;28;20424;-75
2023/03/20 05:07:28;;;;;;;19.88;12.02;;;7.70;99.90;;;;;;4969815;28;20431;-78
2023/03/20 05:09:53;;;;;;;19.37;11.63;;;7.70;99.90;;;;;;4981576;28;20438;-76
2023/03/20 05:12:20;;;;;;;16.00;10.70;;;7.70;99.90;;;;;;4987997;28;20489;-77
2023/03/20 05:14:45;;;;;;;16.42;11.52;;;7.70;99.90;;;;;;4988776;28;20430;-75
2023/03/20 05:17:11;;;;;;;14.02;10.32;;;7.70;99.90;;;;;;4985240;28;21207;-75
2023/03/20 05:19:37;;;;;;;18.65;12.43;;;7.70;99.90;;;;;;4982932;28;20434;-75
2023/03/20 05:22:04;;;;;;;20.83;12.70;;;7.70;99.90;;;;;;4986478;28;20506;-76
2023/03/20 05:24:30;;;;;;;16.10;11.32;;;7.70;99.90;;;;;;4990157;28;20411;-75
2023/03/20 05:26:56;;;;;;;19.15;11.50;;;7.60;99.90;;;;;;4986964;28;20529;-74
2023/03/20 05:29:22;;;;;;;16.65;11.55;;;7.70;99.90;;;;;;4988259;28;20513;-76
2023/03/20 05:31:47;;;;;;;18.73;11.18;;;7.60;99.90;;;;;;4988266;28;20441;-78
2023/03/20 05:34:13;;;;;;;14.13;10.35;;;7.70;99.90;;;;;;4971604;28;20430;-75
2023/03/20 05:36:39;;;;;;;15.85;11.45;;;7.70;99.90;;;;;;4987470;28;20426;-75
2023/03/20 05:39:05;;;;;;;15.27;11.85;;;7.70;99.90;;;;;;4989013;28;20497;-73
2023/03/20 05:41:30;;;;;;;18.57;12.00;;;7.60;99.90;;;;;;4988205;28;21012;-74
2023/03/20 05:43:56;;;;;;;17.67;11.20;;;7.60;99.90;;;;;;4986448;28;20471;-75
2023/03/20 05:46:22;;;;;;;15.73;10.98;;;7.60;99.90;;;;;;4986838;28;20910;-75
2023/03/20 05:48:48;;;;;;;15.25;12.02;;;7.50;99.90;;;;;;4988627;28;20438;-76
2023/03/20 05:51:13;;;;;;;19.02;12.73;;;7.60;99.90;;;;;;4966119;28;20438;-74
2023/03/20 05:53:39;;;;;;;17.05;11.63;;;7.60;99.90;;;;;;4990105;28;20407;-74
2023/03/20 05:56:05;;;;;;;17.60;11.55;;;7.60;99.90;;;;;;4987649;28;20440;-74
2023/03/20 05:58:31;;;;;;;16.42;11.25;;;7.70;99.90;;;;;;4987071;28;20422;-75
2023/03/20 06:00:57;;;;;;;17.70;12.07;;;7.60;99.90;;;;;;4985585;28;20935;-73
2023/03/20 06:03:24;;;;;;;16.08;10.70;;;7.70;99.90;;;;;;4987420;28;20464;-74
2023/03/20 06:05:50;;;;;;;15.05;10.73;;;7.60;99.90;;;;;;4983931;28;21051;-75
2023/03/20 06:08:15;;;;;;;16.50;10.45;;;7.70;99.90;;;;;;4970349;28;20427;-74
2023/03/20 06:10:41;;;;;;;14.98;10.63;;;7.70;99.90;;;;;;4984416;28;20530;-74
2023/03/20 06:13:07;;;;;;;15.48;10.35;;;7.70;99.90;;;;;;4979747;28;20424;-74
2023/03/20 06:15:32;;;;;;;15.75;9.82;;;7.70;99.90;;;;;;4988444;28;20454;-75
2023/03/20 06:17:58;;;;;;;16.90;11.00;;;7.70;99.90;;;;;;4985368;28;20505;-75
2023/03/20 06:20:25;;;;;;;13.60;9.65;;;7.70;99.90;;;;;;4984434;28;20475;-75
2023/03/20 06:22:51;;;;;;;16.05;10.55;;;7.80;99.90;;;;;;4987184;28;20433;-75
2023/03/20 06:25:17;;;;;;;15.40;10.77;;;7.80;99.90;;;;;;4986475;28;20438;-75
2023/03/20 06:27:44;;;;;;;16.50;10.17;;;7.80;99.90;;;;;;4984819;28;20429;-74
2023/03/20 06:30:10;;;;;;;15.15;10.02;;;7.80;99.90;;;;;;4987282;28;20431;-75
2023/03/20 06:32:36;;;;;;;15.80;10.82;;;7.80;99.90;;;;;;4987373;28;20430;-74
2023/03/20 06:35:04;;;;;;;15.85;10.18;;;7.80;99.90;;;;;;4986839;28;20425;-75
2023/03/20 06:37:30;;;;;;;14.38;10.73;;;7.80;99.90;;;;;;4986224;28;20449;-75
2023/03/20 06:39:56;;;;;;;14.43;11.10;;;7.90;99.90;;;;;;4985053;28;20498;-75
2023/03/20 06:42:22;;;;;;;13.50;10.88;;;7.90;99.90;;;;;;4986878;28;20506;-75
2023/03/20 06:44:48;;;;;;;20.30;12.23;;;7.80;99.90;;;;;;4985303;28;20441;-76
2023/03/20 06:47:14;;;;;;;15.17;10.80;;;7.90;99.90;;;;;;4982744;28;20485;-77
2023/03/20 06:49:40;;;;;;;15.52;10.60;;;8.00;99.90;;;;;;4987397;28;21344;-76
2023/03/20 06:52:06;;;;;;;16.93;10.93;;;7.90;99.90;;;;;;4982583;28;20566;-76
2023/03/20 06:54:32;;;;;;;19.50;12.82;;;7.90;99.90;;;;;;4986030;28;20493;-73
2023/03/20 06:56:58;;;;;;;14.95;10.88;;;7.90;99.90;;;;;;4986146;28;20421;-74
2023/03/20 06:59:23;;;;;;;17.77;11.07;;;8.00;99.90;;;;;;4987308;28;20586;-75
2023/03/20 07:01:49;;;;;;;18.38;11.05;;;8.00;99.90;;;;;;4981968;28;20421;-75
2023/03/20 07:04:16;;;;;;;18.95;11.13;;;8.10;99.90;;;;;;4982925;28;20930;-74
2023/03/20 07:06:41;;;;;;;16.88;10.80;;;8.10;99.90;;;;;;4984361;28;20472;-74
2023/03/20 07:09:07;;;;;;;21.13;12.65;;;8.20;99.90;;;;;;4968345;28;20430;-74
2023/03/20 07:11:34;;;;;;;16.52;11.65;;;8.10;99.90;;;;;;4987432;28;20410;-76
2023/03/20 07:14:00;;;;;;;20.15;12.02;;;8.20;99.90;;;;;;4986291;28;20454;-75
2023/03/20 07:16:26;;;;;;;19.17;11.88;;;8.30;99.90;;;;;;4983812;28;20492;-75
2023/03/20 07:18:52;;;;;;;18.03;11.20;;;8.40;99.90;;;;;;4987734;28;20464;-76
2023/03/20 07:21:21;;;;;;;18.02;12.57;;;8.40;99.90;;;;;;4985865;28;20454;-76
2023/03/20 07:23:47;;;;;;;17.33;12.13;;;8.40;99.90;;;;;;4984556;28;20432;-72
2023/03/20 07:26:13;;;;;;;18.87;11.73;;;8.50;99.90;;;;;;4989037;28;20410;-74
2023/03/20 07:28:39;;;;;;;20.50;12.25;;;8.50;99.90;;;;;;4988813;28;20426;-74
2023/03/20 07:31:05;;;;;;;16.02;11.38;;;8.50;99.90;;;;;;4983850;28;20434;-75
2023/03/20 07:33:30;;;;;;;19.23;12.40;;;8.50;99.90;;;;;;4982549;28;20454;-73
2023/03/20 07:35:56;;;;;;;19.10;11.98;;;8.40;99.90;;;;;;4983370;28;20445;-75
2023/03/20 07:38:22;;;;;;;16.88;12.07;;;8.50;99.90;;;;;;4974135;28;20479;-74
2023/03/20 07:40:48;;;;;;;19.70;12.50;;;8.50;99.90;;;;;;4971108;28;20429;-75
2023/03/20 07:43:15;;;;;;;16.73;11.37;;;8.50;99.90;;;;;;4980094;28;20504;-75
2023/03/20 07:45:41;;;;;;;22.50;13.30;;;8.60;99.90;;;;;;4982204;28;20423;-74
2023/03/20 07:48:07;;;;;;;17.65;12.48;;;8.70;99.90;;;;;;4981299;28;20430;-75
2023/03/20 07:50:32;;;;;;;18.67;12.10;;;8.70;99.90;;;;;;4987548;28;20438;-76
2023/03/20 07:52:58;;;;;;;22.58;13.98;;;8.60;99.90;;;;;;4990272;28;20762;-75
2023/03/20 07:55:25;;;;;;;16.63;11.73;;;8.70;99.90;;;;;;4982420;28;20450;-76
2023/03/20 07:57:51;;;;;;;17.80;12.63;;;8.70;99.90;;;;;;4980464;28;20477;-76
2023/03/20 08:00:17;;;;;;;19.05;12.65;;;8.70;99.90;;;;;;4992613;28;20418;-75
2023/03/20 08:02:43;;;;;;;19.10;12.55;;;8.80;99.90;;;;;;4985328;28;20511;-77
2023/03/20 08:05:09;;;;;;;19.27;13.23;;;8.90;99.90;;;;;;4980944;28;20481;-76
2023/03/20 08:07:35;;;;;;;20.60;12.40;;;8.90;99.90;;;;;;4969066;28;20655;-76
2023/03/20 08:10:02;;;;;;;21.83;13.38;;;9.00;99.90;;;;;;4986440;28;20517;-75
2023/03/20 08:12:28;;;;;;;16.63;12.27;;;8.70;99.90;;;;;;4984971;28;20433;-74
2023/03/20 08:14:54;;;;;;;20.05;13.23;;;9.00;99.90;;;;;;4985818;28;20427;-76
2023/03/20 08:17:20;;;;;;;17.95;12.90;;;9.00;99.90;;;;;;4986756;28;20453;-76
2023/03/20 08:19:46;;;;;;;18.48;12.35;;;9.10;99.90;;;;;;4984827;28;20510;-75
2023/03/20 08:22:12;;;;;;;19.15;13.07;;;9.10;99.90;;;;;;4985844;28;20414;-74
2023/03/20 08:24:37;;;;;;;16.93;13.07;;;9.10;99.90;;;;;;4983236;28;20445;-74
2023/03/20 08:27:03;;;;;;;22.05;13.35;;;9.10;99.90;;;;;;4988218;28;20415;-76
2023/03/20 08:29:29;;;;;;;21.33;12.27;;;9.00;99.90;;;;;;4989890;28;20422;-77
2023/03/20 08:31:56;;;;;;;19.47;12.77;;;9.00;99.90;;;;;;4972192;28;20931;-76
2023/03/20 08:34:21;;;;;;;20.08;11.80;;;9.20;99.90;;;;;;4987903;28;20428;-77
2023/03/20 08:36:47;;;;;;;19.43;12.17;;;9.10;99.90;;;;;;4990431;28;20425;-76
2023/03/20 08:39:13;;;;;;;17.53;12.03;;;9.20;99.90;;;;;;4987809;28;20492;-75
2023/03/20 08:41:40;;;;;;;16.42;11.35;;;9.10;99.90;;;;;;4977430;28;20483;-76
2023/03/20 08:44:06;;;;;;;16.90;11.73;;;9.30;99.90;;;;;;4987038;28;22087;-75
2023/03/20 08:46:32;;;;;;;20.95;12.32;;;9.20;99.90;;;;;;5005782;28;20473;-76
2023/03/20 08:48:59;;;;;;;19.23;11.30;;;9.40;99.90;;;;;;4987889;28;20523;-75
2023/03/20 08:51:25;;;;;;;19.87;12.07;;;9.50;99.90;;;;;;4988299;28;20480;-77
2023/03/20 08:53:51;;;;;;;20.80;11.23;;;9.60;99.90;;;;;;4988861;28;20928;-77
2023/03/20 08:56:16;;;;;;;18.43;11.20;;;9.60;99.90;;;;;;4988050;28;20493;-75
2023/03/20 08:58:42;;;;;;;15.70;10.27;;;9.60;99.90;;;;;;4988541;28;20477;-76
2023/03/20 09:01:09;;;;;;;14.40;11.53;;;9.70;99.90;;;;;;4987581;28;20458;-76
2023/03/20 09:03:35;;;;;;;15.73;10.43;;;9.70;99.90;;;;;;4988266;28;20574;-76
2023/03/20 09:06:04;;;;;;;16.65;10.93;;;9.60;99.90;;;;;;4987303;28;20756;-76
2023/03/20 09:08:30;;;;;;;16.58;10.07;;;9.60;99.90;;;;;;4984244;28;20766;-73
2023/03/20 09:10:56;;;;;;;23.63;11.38;;;9.60;99.90;;;;;;4985489;28;20438;-74
2023/03/20 09:13:22;;;;;;;17.98;10.48;;;9.60;99.90;;;;;;4972732;28;20423;-73
2023/03/20 09:15:48;;;;;;;16.15;10.43;;;9.60;99.90;;;;;;4984682;28;20437;-74
2023/03/20 09:18:14;;;;;;;16.02;10.02;;;9.60;99.90;;;;;;4990009;28;20789;-73
2023/03/20 09:20:40;;;;;;;16.05;10.30;;;9.90;99.90;;;;;;4986631;28;20785;-73
2023/03/20 09:23:05;;;;;;;17.55;10.00;;;10.00;99.90;;;;;;4988006;28;20458;-73
2023/03/20 09:25:31;;;;;;;17.38;10.50;;;10.00;99.90;;;;;;4986634;28;20438;-73
2023/03/20 09:27:56;;;;;;;15.85;10.57;;;9.90;99.90;;;;;;4987994;28;20468;-74
2023/03/20 09:30:23;;;;;;;14.85;9.05;;;10.00;99.90;;;;;;4985968;28;20525;-74
2023/03/20 09:32:50;;;;;;;14.25;10.27;;;9.90;99.90;;;;;;4986373;28;20946;-74
2023/03/20 09:35:17;;;;;;;16.37;9.93;;;10.30;99.90;;;;;;4985837;28;20438;-72
2023/03/20 09:37:43;;;;;;;17.93;10.10;;;10.00;99.90;;;;;;4987675;28;20747;-73
2023/03/20 09:40:23;;;;;;;20.55;9.73;;;10.10;99.90;;;;;;4965327;28;20893;-74
2023/03/20 09:43:01;;;;;;;17.90;10.95;;;10.10;99.90;;;;;;4982150;28;20494;-75
2023/03/20 09:45:46;;;;;;;16.90;9.10;;;10.10;99.90;;;;;;4979423;28;20437;-73
2023/03/20 09:48:25;;;;;;;19.02;8.68;;;10.10;99.90;;;;;;4982265;28;20435;-74
2023/03/20 09:51:24;;;;;;;14.48;8.63;;;10.10;99.90;;;;;;4984132;28;20434;-74
2023/03/20 09:54:01;;;;;;;19.40;9.68;;;10.10;99.90;;;;;;4986749;28;21357;-74
2023/03/20 09:56:29;;;;;;;16.75;9.07;;;10.10;99.90;;;;;;4988095;28;20434;-73
2023/03/20 09:59:01;;;;;;;16.67;9.80;;;10.00;99.90;;;;;;4988369;28;20449;-74
2023/03/20 10:01:33;;;;;;;15.88;9.20;;;9.90;99.90;;;;;;4986905;28;20422;-75
2023/03/20 10:04:10;;;;;;;17.77;9.00;;;9.80;99.90;;;;;;4988274;28;20414;-73
2023/03/20 10:06:36;;;;;;;16.83;9.10;;;9.90;99.90;;;;;;4984872;28;20501;-72
2023/03/20 10:09:10;;;;;;;19.87;9.77;;;10.10;99.90;;;;;;4988712;28;20542;-75
2023/03/20 10:12:20;;;;;;;20.25;9.35;;;10.00;99.90;;;;;;4987272;28;20496;-73
2023/03/20 10:15:17;;;;;;;17.20;8.95;;;9.90;99.90;;;;;;4955788;28;20536;-74
2023/03/20 10:18:10;;;;;;;22.60;8.25;;;9.90;99.90;;;;;;4962276;28;20428;-75
2023/03/20 10:20:53;;;;;;;18.70;8.98;;;10.10;99.90;;;;;;4976392;28;20430;-76
2023/03/20 10:23:21;;;;;;;17.48;8.85;;;10.30;99.90;;;;;;4987749;28;20415;-76
2023/03/20 10:25:58;;;;;;;18.80;10.00;;;10.40;99.90;;;;;;4985189;28;20438;-75
2023/03/20 10:28:52;;;;;;;22.43;10.27;;;10.50;99.90;;;;;;4985930;28;20426;-76
2023/03/20 10:31:54;;;;;;;19.13;8.45;;;10.20;99.90;;;;;;4984044;28;20801;-77
2023/03/20 10:34:47;;;;;;;15.48;7.32;;;10.10;99.90;;;;;;4980860;28;20434;-78
2023/03/20 10:37:29;;;;;;;17.60;8.75;;;10.10;99.90;;;;;;4982415;28;20451;-78
2023/03/20 10:40:35;;;;;;;16.85;8.70;;;10.10;99.90;;;;;;4987430;28;20553;-75
2023/03/20 10:43:22;;;;;;;15.77;8.00;;;9.90;99.90;;;;;;4983782;28;20473;-74
2023/03/20 10:46:12;;;;;;;15.45;8.35;;;9.90;99.90;;;;;;4955574;28;20436;-75
2023/03/20 10:49:03;;;;;;;15.55;8.02;;;9.80;99.90;;;;;;4972125;28;20466;-76
2023/03/20 10:51:53;;;;;;;17.95;8.43;;;9.80;99.90;;;;;;4985258;28;20426;-76
2023/03/20 10:54:40;;;;;;;16.35;8.30;;;9.80;99.90;;;;;;4988285;28;21092;-75
2023/03/20 10:57:13;;;;;;;20.73;8.63;;;9.80;99.90;;;;;;4985358;28;20458;-76
2023/03/20 10:59:49;;;;;;;14.83;7.73;;;9.80;99.90;;;;;;4987533;28;20467;-75
2023/03/20 11:02:17;;;;;;;13.30;7.07;;;9.70;99.90;;;;;;4988000;28;20473;-76
2023/03/20 11:04:44;;;;;;;14.90;7.40;;;9.80;99.90;;;;;;4983556;28;20543;-75
2023/03/20 11:07:27;;;;;;;16.30;7.75;;;9.70;99.90;;;;;;4987636;28;20437;-75
2023/03/20 11:10:06;;;;;;;19.13;8.55;;;9.70;99.90;;;;;;4987951;28;20444;-75
2023/03/20 11:12:39;;;;;;;14.63;7.50;;;9.80;99.90;;;;;;4987446;28;20954;-75
2023/03/20 11:15:34;;;;;;;16.00;7.57;;;10.00;99.90;;;;;;4986077;28;20515;-75
2023/03/20 11:18:02;;;;;;;14.68;6.05;;;10.00;99.90;;;;;;4982927;28;20432;-75
2023/03/20 11:20:34;;;;;;;18.50;7.80;;;10.00;99.90;;;;;;4986222;28;20439;-75
2023/03/20 11:23:03;;;;;;;16.60;7.53;;;9.90;99.90;;;;;;4980619;28;20447;-75
2023/03/20 11:25:36;;;;;;;17.63;7.60;;;9.80;99.90;;;;;;4973902;28;20517;-75
2023/03/20 11:28:25;;;;;;;15.20;6.75;;;10.00;99.90;;;;;;4988540;28;20395;-75
2023/03/20 11:31:07;;;;;;;11.98;6.38;;;9.80;99.90;;;;;;4964105;28;20447;-75
2023/03/20 11:33:38;;;;;;;16.17;7.28;;;9.90;99.90;;;;;;4965829;28;20525;-75
2023/03/20 11:36:18;;;;;;;11.20;6.20;;;10.10;99.90;;;;;;4969251;28;20538;-75
2023/03/20 11:38:45;;;;;;;14.73;6.75;;;10.10;99.90;;;;;;4971268;28;20430;-75
2023/03/20 11:41:18;;;;;;;14.25;7.38;;;10.10;99.90;;;;;;4983506;28;20422;-75
2023/03/20 11:43:44;;;;;;;11.53;6.87;;;9.90;99.90;;;;;;4984036;28;20425;-76
2023/03/20 11:46:12;;;;;;;13.48;6.28;;;10.00;99.90;;;;;;4982033;28;20906;-74
2023/03/20 11:48:41;;;;;;;15.93;7.28;;;9.80;99.90;;;;;;4986430;28;20434;-74
2023/03/20 11:51:15;;;;;;;18.20;7.93;;;9.70;99.90;;;;;;4984672;28;20442;-75
2023/03/20 11:54:03;;;;;;;18.15;8.73;;;9.60;99.90;;;;;;4987050;28;20422;-76
2023/03/20 11:56:32;;;;;;;13.60;7.38;;;9.60;99.90;;;;;;4983029;28;20514;-75
2023/03/20 11:58:58;;;;;;;15.52;8.18;;;9.30;99.90;;;;;;4984839;28;20410;-75
2023/03/20 12:01:26;;;;;;;15.37;8.63;;;9.60;99.90;;;;;;4986508;28;20871;-75
2023/03/20 12:03:54;;;;;;;15.85;8.23;;;9.70;99.90;;;;;;4988330;28;20445;-75
2023/03/20 12:06:48;;;;;;;16.92;8.60;;;9.60;99.90;;;;;;4987253;28;20422;-75
2023/03/20 12:09:41;;;;;;;22.10;10.27;;;9.40;99.90;;;;;;4960348;28;20445;-75
2023/03/20 12:12:31;;;;;;;17.60;9.50;;;9.60;99.90;;;;;;4988525;28;20430;-75
2023/03/20 12:15:03;;;;;;;15.73;9.27;;;9.40;99.90;;;;;;4988002;28;20452;-76
2023/03/20 12:17:52;;;;;;;20.95;10.30;;;9.20;99.90;;;;;;4972523;28;20438;-75
2023/03/20 12:20:27;;;;;;;16.13;8.45;;;9.10;99.90;;;;;;4979735;28;20445;-77
2023/03/20 12:23:10;;;;;;;15.63;9.10;;;9.10;99.90;;;;;;4982814;28;20420;-76
2023/03/20 12:26:03;;;;;;;16.30;10.13;;;9.30;99.90;;;;;;4984602;28;20445;-77
2023/03/20 12:28:31;;;;;;;14.63;9.55;;;9.40;99.90;;;;;;4989917;28;20430;-77
2023/03/20 12:31:28;;;;;;;14.43;8.77;;;9.20;99.90;;;;;;4983047;28;20447;-76
2023/03/20 12:34:09;;;;;;;15.27;9.57;;;9.20;99.90;;;;;;4973499;28;20459;-76
2023/03/20 12:36:42;;;;;;;12.93;9.20;;;9.30;99.90;;;;;;4983350;28;20419;-75
2023/03/20 12:39:13;;;;;;;14.20;9.47;;;9.40;99.90;;;;;;4986596;28;20470;-76
2023/03/20 12:41:46;;;;;;;17.92;10.07;;;9.30;99.90;;;;;;4972153;28;20431;-76
2023/03/20 12:44:30;;;;;;;17.05;10.40;;;9.40;99.90;;;;;;4980780;28;20454;-76
2023/03/20 12:47:13;;;;;;;17.55;10.40;;;9.30;99.90;;;;;;4953292;28;20451;-76
2023/03/20 12:49:57;;;;;;;14.73;9.25;;;9.10;99.90;;;;;;4987461;28;20433;-76
2023/03/20 12:52:22;;;;;;;16.45;10.48;;;9.20;99.90;;;;;;4989587;28;20505;-76
2023/03/20 12:55:12;;;;;;;14.60;9.63;;;9.20;99.90;;;;;;4976791;28;20513;-75
2023/03/20 12:57:55;;;;;;;14.48;10.57;;;9.30;99.90;;;;;;4987542;28;20572;-76
2023/03/20 13:00:39;;;;;;;16.67;10.95;;;9.20;99.90;;;;;;4990318;28;20414;-76
2023/03/20 13:03:23;;;;;;;13.90;9.07;;;9.40;99.90;;;;;;4988726;28;20460;-78
2023/03/20 13:06:14;;;;;;;12.57;8.98;;;9.10;99.90;;;;;;4985330;28;20470;-76